sensor_id;sensor_type;location;lat;lon;timestamp;temperature;humidity
25825;DHT22;13658;44.534;18.694;2022-11-20T00:00:04;7.90;99.90
25825;DHT22;13658;44.534;18.694;2022-11-20T00:02:32;8.00;99.90
25825;DHT22;13658;44.534;18.694;2022-11-20T00:04:58;7.90;99.90
25825;DHT22;13658;44.534;18.694;2022-11-20T00:07:24;7.90;99.90
25825;DHT22;13658;44.534;18.694;2022-11-20T00:09:50;7.90;99.90
25825;DHT22;13658;44.534;18.694;2022-11-20T00:12:16;7.90;99.90
25825;DHT22;13658;44.534;18.694;2022-11-20T00:14:42;7.90;99.90
25825;DHT22;13658;44.534;18.694;2022-11-20T00:17:08;7.90;99.90
25825;DHT22;13658;44.534;18.694;2022-11-20T00:19:34;7.90;99.90
25825;DHT22;13658;44.534;18.694;2022-11-20T00:21:59;7.80;99.90
25825;DHT22;13658;44.534;18.694;2022-11-20T00:24:25;7.80;99.90
25825;DHT22;13658;44.534;18.694;2022-11-20T00:26:51;7.80;99.90
25825;DHT22;13658;44.534;18.694;2022-11-20T00:29:17;7.80;99.90
25825;DHT22;13658;44.534;18.694;2022-11-20T00:31:43;7.80;99.90
25825;DHT22;13658;44.534;18.694;2022-11-20T00:34:09;7.80;99.90
25825;DHT22;13658;44.534;18.694;2022-11-20T00:36:35;7.90;99.90
25825;DHT22;13658;44.534;18.694;2022-11-20T00:39:01;7.80;99.90
25825;DHT22;13658;44.534;18.694;2022-11-20T00:41:28;7.70;99.90
25825;DHT22;13658;44.534;18.694;2022-11-20T00:43:55;7.70;99.90
25825;DHT22;13658;44.534;18.694;2022-11-20T00:46:23;7.70;99.90
25825;DHT22;13658;44.534;18.694;2022-11-20T00:48:49;7.70;99.90
25825;DHT22;13658;44.534;18.694;2022-11-20T00:51:18;7.80;99.90
25825;DHT22;13658;44.534;18.694;2022-11-20T00:53:45;7.70;99.90
25825;DHT22;13658;44.534;18.694;2022-11-20T00:56:13;7.70;99.90
25825;DHT22;13658;44.534;18.694;2022-11-20T00:58:42;7.70;99.90
25825;DHT22;13658;44.534;18.694;2022-11-20T01:01:12;7.60;99.90
25825;DHT22;13658;44.534;18.694;2022-11-20T01:03:43;7.60;99.90
25825;DHT22;13658;44.534;18.694;2022-11-20T01:06:15;7.60;99.90
25825;DHT22;13658;44.534;18.694;2022-11-20T01:08:42;7.60;99.90
25825;DHT22;13658;44.534;18.694;2022-11-20T01:11:20;7.60;99.90
25825;DHT22;13658;44.534;18.694;2022-11-20T01:13:47;7.70;99.90
25825;DHT22;13658;44.534;18.694;2022-11-20T01:16:18;7.70;99.90
25825;DHT22;13658;44.534;18.694;2022-11-20T01:18:47;7.70;99.90
25825;DHT22;13658;44.534;18.694;2022-11-20T01:21:22;7.60;99.90
25825;DHT22;13658;44.534;18.694;2022-11-20T01:23:49;7.60;99.90
25825;DHT22;13658;44.534;18.694;2022-11-20T01:26:18;7.60;99.90
25825;DHT22;13658;44.534;18.694;2022-11-20T01:28:45;7.60;99.90
25825;DHT22;13658;44.534;18.694;2022-11-20T01:31:29;7.60;99.90
25825;DHT22;13658;44.534;18.694;2022-11-20T01:33:57;7.60;99.90
25825;DHT22;13658;44.534;18.694;2022-11-20T01:36:24;7.60;99.90
25825;DHT22;13658;44.534;18.694;2022-11-20T01:38:55;7.60;99.90
25825;DHT22;13658;44.534;18.694;2022-11-20T01:41:22;7.60;99.90
25825;DHT22;13658;44.534;18.694;2022-11-20T01:44:07;7.50;99.90
25825;DHT22;13658;44.534;18.694;2022-11-20T01:46:36;7.60;99.90
25825;DHT22;13658;44.534;18.694;2022-11-20T01:51:39;7.50;99.90
25825;DHT22;13658;44.534;18.694;2022-11-20T01:54:13;7.50;99.90
25825;DHT22;13658;44.534;18.694;2022-11-20T01:56:43;7.50;99.90
25825;DHT22;13658;44.534;18.694;2022-11-20T01:59:10;7.50;99.90
25825;DHT22;13658;44.534;18.694;2022-11-20T02:01:39;7.60;99.90
25825;DHT22;13658;44.534;18.694;2022-11-20T02:04:07;7.60;99.90
25825;DHT22;13658;44.534;18.694;2022-11-20T02:07:00;7.60;99.90
25825;DHT22;13658;44.534;18.694;2022-11-20T02:09:27;7.60;99.90
25825;DHT22;13658;44.534;18.694;2022-11-20T02:11:53;7.70;99.90
25825;DHT22;13658;44.534;18.694;2022-11-20T02:14:21;7.70;99.90
25825;DHT22;13658;44.534;18.694;2022-11-20T02:16:48;7.70;99.90
25825;DHT22;13658;44.534;18.694;2022-11-20T02:19:30;7.70;99.90
25825;DHT22;13658;44.534;18.694;2022-11-20T02:22:12;7.70;99.90
25825;DHT22;13658;44.534;18.694;2022-11-20T02:24:40;7.70;99.90
25825;DHT22;13658;44.534;18.694;2022-11-20T02:27:12;7.70;99.90
25825;DHT22;13658;44.534;18.694;2022-11-20T02:29:53;7.70;99.90
25825;DHT22;13658;44.534;18.694;2022-11-20T02:32:21;7.70;99.90
25825;DHT22;13658;44.534;18.694;2022-11-20T02:34:47;7.70;99.90
25825;DHT22;13658;44.534;18.694;2022-11-20T02:37:14;7.70;99.90
25825;DHT22;13658;44.534;18.694;2022-11-20T02:39:40;7.70;99.90
25825;DHT22;13658;44.534;18.694;2022-11-20T02:42:07;7.70;99.90
25825;DHT22;13658;44.534;18.694;2022-11-20T02:44:33;7.60;99.90
25825;DHT22;13658;44.534;18.694;2022-11-20T02:46:59;7.70;99.90
25825;DHT22;13658;44.534;18.694;2022-11-20T02:49:25;7.70;99.90
25825;DHT22;13658;44.534;18.694;2022-11-20T02:51:51;7.70;99.90
25825;DHT22;13658;44.534;18.694;2022-11-20T02:54:17;7.70;99.90
25825;DHT22;13658;44.534;18.694;2022-11-20T02:56:43;7.70;99.90
25825;DHT22;13658;44.534;18.694;2022-11-20T02:59:09;7.70;99.90
25825;DHT22;13658;44.534;18.694;2022-11-20T03:01:35;7.70;99.90
25825;DHT22;13658;44.534;18.694;2022-11-20T03:04:01;7.60;99.90
25825;DHT22;13658;44.534;18.694;2022-11-20T03:06:27;7.60;99.90
25825;DHT22;13658;44.534;18.694;2022-11-20T03:08:53;7.50;99.90
25825;DHT22;13658;44.534;18.694;2022-11-20T03:11:20;7.50;99.90
25825;DHT22;13658;44.534;18.694;2022-11-20T03:13:46;7.40;99.90
25825;DHT22;13658;44.534;18.694;2022-11-20T03:16:15;7.40;99.90
25825;DHT22;13658;44.534;18.694;2022-11-20T03:18:42;7.40;99.90
25825;DHT22;13658;44.534;18.694;2022-11-20T03:21:09;7.40;99.90
25825;DHT22;13658;44.534;18.694;2022-11-20T03:23:36;7.40;99.90
25825;DHT22;13658;44.534;18.694;2022-11-20T03:26:11;7.30;99.90
25825;DHT22;13658;44.534;18.694;2022-11-20T03:28:37;7.30;99.90
25825;DHT22;13658;44.534;18.694;2022-11-20T03:31:08;7.30;99.90
25825;DHT22;13658;44.534;18.694;2022-11-20T03:33:34;7.30;99.90
25825;DHT22;13658;44.534;18.694;2022-11-20T03:36:04;7.30;99.90
25825;DHT22;13658;44.534;18.694;2022-11-20T03:38:32;7.30;99.90
25825;DHT22;13658;44.534;18.694;2022-11-20T03:41:03;7.30;99.90
25825;DHT22;13658;44.534;18.694;2022-11-20T03:43:29;7.20;99.90
25825;DHT22;13658;44.534;18.694;2022-11-20T03:45:56;7.20;99.90
25825;DHT22;13658;44.534;18.694;2022-11-20T03:48:22;7.20;99.90
25825;DHT22;13658;44.534;18.694;2022-11-20T03:50:48;7.10;99.90
25825;DHT22;13658;44.534;18.694;2022-11-20T03:53:14;7.10;99.90
25825;DHT22;13658;44.534;18.694;2022-11-20T03:55:40;7.10;99.90
25825;DHT22;13658;44.534;18.694;2022-11-20T03:58:06;7.00;99.90
25825;DHT22;13658;44.534;18.694;2022-11-20T04:00:32;7.10;99.90
25825;DHT22;13658;44.534;18.694;2022-11-20T04:02:59;7.00;99.90
25825;DHT22;13658;44.534;18.694;2022-11-20T04:05:25;7.00;99.90
25825;DHT22;13658;44.534;18.694;2022-11-20T04:07:51;7.10;99.90
25825;DHT22;13658;44.534;18.694;2022-11-20T04:10:17;7.00;99.90
25825;DHT22;13658;44.534;18.694;2022-11-20T04:12:43;7.00;99.90
25825;DHT22;13658;44.534;18.694;2022-11-20T04:15:09;7.00;99.90
25825;DHT22;13658;44.534;18.694;2022-11-20T04:17:35;7.00;99.90
25825;DHT22;13658;44.534;18.694;2022-11-20T04:20:02;7.00;99.90
25825;DHT22;13658;44.534;18.694;2022-11-20T04:22:28;6.90;99.90
25825;DHT22;13658;44.534;18.694;2022-11-20T04:24:54;6.90;99.90
25825;DHT22;13658;44.534;18.694;2022-11-20T04:27:20;6.90;99.90
25825;DHT22;13658;44.534;18.694;2022-11-20T04:29:46;6.90;99.90
25825;DHT22;13658;44.534;18.694;2022-11-20T04:32:12;6.90;99.90
25825;DHT22;13658;44.534;18.694;2022-11-20T04:34:38;6.90;99.90
25825;DHT22;13658;44.534;18.694;2022-11-20T04:37:04;6.80;99.90
25825;DHT22;13658;44.534;18.694;2022-11-20T04:39:30;6.70;99.90
25825;DHT22;13658;44.534;18.694;2022-11-20T04:41:55;6.80;99.90
25825;DHT22;13658;44.534;18.694;2022-11-20T04:44:40;6.80;99.90
25825;DHT22;13658;44.534;18.694;2022-11-20T04:47:06;6.80;99.90
25825;DHT22;13658;44.534;18.694;2022-11-20T04:49:32;6.80;99.90
25825;DHT22;13658;44.534;18.694;2022-11-20T04:51:58;6.80;99.90
25825;DHT22;13658;44.534;18.694;2022-11-20T04:54:24;6.80;99.90
25825;DHT22;13658;44.534;18.694;2022-11-20T04:56:50;6.80;99.90
25825;DHT22;13658;44.534;18.694;2022-11-20T04:59:16;6.70;99.90
25825;DHT22;13658;44.534;18.694;2022-11-20T05:01:42;6.70;99.90
25825;DHT22;13658;44.534;18.694;2022-11-20T05:04:08;6.70;99.90
25825;DHT22;13658;44.534;18.694;2022-11-20T05:06:34;6.70;99.90
25825;DHT22;13658;44.534;18.694;2022-11-20T05:09:00;6.70;99.90
25825;DHT22;13658;44.534;18.694;2022-11-20T05:11:26;6.70;99.90
25825;DHT22;13658;44.534;18.694;2022-11-20T05:13:55;6.60;99.90
25825;DHT22;13658;44.534;18.694;2022-11-20T05:16:22;6.60;99.90
25825;DHT22;13658;44.534;18.694;2022-11-20T05:18:50;6.50;99.90
25825;DHT22;13658;44.534;18.694;2022-11-20T05:21:17;6.60;99.90
25825;DHT22;13658;44.534;18.694;2022-11-20T05:23:44;6.60;99.90
25825;DHT22;13658;44.534;18.694;2022-11-20T05:26:16;6.60;99.90
25825;DHT22;13658;44.534;18.694;2022-11-20T05:28:42;6.50;99.90
25825;DHT22;13658;44.534;18.694;2022-11-20T05:31:14;6.50;99.90
25825;DHT22;13658;44.534;18.694;2022-11-20T05:33:42;6.40;99.90
25825;DHT22;13658;44.534;18.694;2022-11-20T05:36:09;6.40;99.90
25825;DHT22;13658;44.534;18.694;2022-11-20T05:38:35;6.40;99.90
25825;DHT22;13658;44.534;18.694;2022-11-20T05:41:10;6.50;99.90
25825;DHT22;13658;44.534;18.694;2022-11-20T05:43:38;6.50;99.90
25825;DHT22;13658;44.534;18.694;2022-11-20T05:46:05;6.50;99.90
25825;DHT22;13658;44.534;18.694;2022-11-20T05:48:31;6.50;99.90
25825;DHT22;13658;44.534;18.694;2022-11-20T05:50:58;6.40;99.90
25825;DHT22;13658;44.534;18.694;2022-11-20T05:53:24;6.40;99.90
25825;DHT22;13658;44.534;18.694;2022-11-20T05:56:04;6.50;99.90
25825;DHT22;13658;44.534;18.694;2022-11-20T05:58:31;6.50;99.90
25825;DHT22;13658;44.534;18.694;2022-11-20T06:01:20;6.50;99.90
25825;DHT22;13658;44.534;18.694;2022-11-20T06:03:47;6.50;99.90
25825;DHT22;13658;44.534;18.694;2022-11-20T06:06:17;6.50;99.90
25825;DHT22;13658;44.534;18.694;2022-11-20T06:08:43;6.50;99.90
25825;DHT22;13658;44.534;18.694;2022-11-20T06:11:11;6.50;99.90
25825;DHT22;13658;44.534;18.694;2022-11-20T06:13:38;6.40;99.90
25825;DHT22;13658;44.534;18.694;2022-11-20T06:16:05;6.40;99.90
25825;DHT22;13658;44.534;18.694;2022-11-20T06:18:31;6.40;99.90
25825;DHT22;13658;44.534;18.694;2022-11-20T06:21:09;6.40;99.90
25825;DHT22;13658;44.534;18.694;2022-11-20T06:23:36;6.50;99.90
25825;DHT22;13658;44.534;18.694;2022-11-20T06:26:13;6.50;99.90
25825;DHT22;13658;44.534;18.694;2022-11-20T06:28:39;6.50;99.90
25825;DHT22;13658;44.534;18.694;2022-11-20T06:31:06;6.60;99.90
25825;DHT22;13658;44.534;18.694;2022-11-20T06:33:33;6.50;99.90
25825;DHT22;13658;44.534;18.694;2022-11-20T06:36:00;6.50;99.90
25825;DHT22;13658;44.534;18.694;2022-11-20T06:38:27;6.60;99.90
25825;DHT22;13658;44.534;18.694;2022-11-20T06:40:53;6.70;99.90
25825;DHT22;13658;44.534;18.694;2022-11-20T06:43:20;6.70;99.90
25825;DHT22;13658;44.534;18.694;2022-11-20T06:45:45;6.70;99.90
25825;DHT22;13658;44.534;18.694;2022-11-20T06:48:11;6.70;99.90
25825;DHT22;13658;44.534;18.694;2022-11-20T06:50:37;6.70;99.90
25825;DHT22;13658;44.534;18.694;2022-11-20T06:53:04;6.70;99.90
25825;DHT22;13658;44.534;18.694;2022-11-20T06:55:31;6.60;99.90
25825;DHT22;13658;44.534;18.694;2022-11-20T06:57:57;6.60;99.90
25825;DHT22;13658;44.534;18.694;2022-11-20T07:00:23;6.60;99.90
25825;DHT22;13658;44.534;18.694;2022-11-20T07:02:49;6.60;99.90
25825;DHT22;13658;44.534;18.694;2022-11-20T07:05:16;6.60;99.90
25825;DHT22;13658;44.534;18.694;2022-11-20T07:07:42;6.50;99.90
25825;DHT22;13658;44.534;18.694;2022-11-20T07:10:09;6.60;99.90
25825;DHT22;13658;44.534;18.694;2022-11-20T07:12:35;6.60;99.90
25825;DHT22;13658;44.534;18.694;2022-11-20T07:15:01;6.60;99.90
25825;DHT22;13658;44.534;18.694;2022-11-20T07:17:27;6.60;99.90
25825;DHT22;13658;44.534;18.694;2022-11-20T07:19:53;6.60;99.90
25825;DHT22;13658;44.534;18.694;2022-11-20T07:22:19;6.60;99.90
25825;DHT22;13658;44.534;18.694;2022-11-20T07:24:48;6.50;99.90
25825;DHT22;13658;44.534;18.694;2022-11-20T07:27:14;6.50;99.90
25825;DHT22;13658;44.534;18.694;2022-11-20T07:29:40;6.40;99.90
25825;DHT22;13658;44.534;18.694;2022-11-20T07:32:05;6.40;99.90
25825;DHT22;13658;44.534;18.694;2022-11-20T07:34:31;6.40;99.90
25825;DHT22;13658;44.534;18.694;2022-11-20T07:36:57;6.50;99.90
25825;DHT22;13658;44.534;18.694;2022-11-20T07:39:23;6.50;99.90
25825;DHT22;13658;44.534;18.694;2022-11-20T07:41:49;6.50;99.90
25825;DHT22;13658;44.534;18.694;2022-11-20T07:44:15;6.60;99.90
25825;DHT22;13658;44.534;18.694;2022-11-20T07:46:41;6.60;99.90
25825;DHT22;13658;44.534;18.694;2022-11-20T07:49:07;6.60;99.90
25825;DHT22;13658;44.534;18.694;2022-11-20T07:51:33;6.70;99.90
25825;DHT22;13658;44.534;18.694;2022-11-20T07:53:58;6.60;99.90
25825;DHT22;13658;44.534;18.694;2022-11-20T07:56:24;6.70;99.90
25825;DHT22;13658;44.534;18.694;2022-11-20T07:58:50;6.60;99.90
25825;DHT22;13658;44.534;18.694;2022-11-20T08:01:16;6.60;99.90
25825;DHT22;13658;44.534;18.694;2022-11-20T08:03:42;6.60;99.90
25825;DHT22;13658;44.534;18.694;2022-11-20T08:06:08;6.70;99.90
25825;DHT22;13658;44.534;18.694;2022-11-20T08:08:34;6.60;99.90
25825;DHT22;13658;44.534;18.694;2022-11-20T08:11:00;6.60;99.90
25825;DHT22;13658;44.534;18.694;2022-11-20T08:13:45;6.60;99.90
25825;DHT22;13658;44.534;18.694;2022-11-20T08:16:30;6.60;99.90
25825;DHT22;13658;44.534;18.694;2022-11-20T08:18:55;6.60;99.90
25825;DHT22;13658;44.534;18.694;2022-11-20T08:21:22;6.60;99.90
25825;DHT22;13658;44.534;18.694;2022-11-20T08:23:47;6.60;99.90
25825;DHT22;13658;44.534;18.694;2022-11-20T08:26:13;6.70;99.90
25825;DHT22;13658;44.534;18.694;2022-11-20T08:28:39;6.80;99.90
25825;DHT22;13658;44.534;18.694;2022-11-20T08:31:05;6.90;99.90
25825;DHT22;13658;44.534;18.694;2022-11-20T08:33:31;6.80;99.90
25825;DHT22;13658;44.534;18.694;2022-11-20T08:36:00;6.80;99.90
25825;DHT22;13658;44.534;18.694;2022-11-20T08:38:26;6.90;99.90
25825;DHT22;13658;44.534;18.694;2022-11-20T08:40:52;6.90;99.90
25825;DHT22;13658;44.534;18.694;2022-11-20T08:43:39;6.90;99.90
25825;DHT22;13658;44.534;18.694;2022-11-20T08:46:05;7.00;99.90
25825;DHT22;13658;44.534;18.694;2022-11-20T08:48:31;6.90;99.90
25825;DHT22;13658;44.534;18.694;2022-11-20T08:50:58;6.90;99.90
25825;DHT22;13658;44.534;18.694;2022-11-20T08:53:25;6.90;99.90
25825;DHT22;13658;44.534;18.694;2022-11-20T08:55:52;6.90;99.90
25825;DHT22;13658;44.534;18.694;2022-11-20T08:58:18;6.80;99.90
25825;DHT22;13658;44.534;18.694;2022-11-20T09:00:43;6.90;99.90
25825;DHT22;13658;44.534;18.694;2022-11-20T09:03:09;6.90;99.90
25825;DHT22;13658;44.534;18.694;2022-11-20T09:05:35;6.90;99.90
25825;DHT22;13658;44.534;18.694;2022-11-20T09:08:01;6.90;99.90
25825;DHT22;13658;44.534;18.694;2022-11-20T09:10:27;7.00;99.90
25825;DHT22;13658;44.534;18.694;2022-11-20T09:12:53;7.00;99.90
25825;DHT22;13658;44.534;18.694;2022-11-20T09:15:20;6.90;99.90
25825;DHT22;13658;44.534;18.694;2022-11-20T09:17:59;7.00;99.90
25825;DHT22;13658;44.534;18.694;2022-11-20T09:20:26;6.90;99.90
25825;DHT22;13658;44.534;18.694;2022-11-20T09:22:54;6.90;99.90
25825;DHT22;13658;44.534;18.694;2022-11-20T09:25:20;7.00;99.90
25825;DHT22;13658;44.534;18.694;2022-11-20T09:27:46;7.00;99.90
25825;DHT22;13658;44.534;18.694;2022-11-20T09:30:14;7.10;99.90
25825;DHT22;13658;44.534;18.694;2022-11-20T09:32:40;7.00;99.90
25825;DHT22;13658;44.534;18.694;2022-11-20T09:35:07;7.10;99.90
25825;DHT22;13658;44.534;18.694;2022-11-20T09:37:33;7.00;99.90
25825;DHT22;13658;44.534;18.694;2022-11-20T09:39:59;7.00;99.90
25825;DHT22;13658;44.534;18.694;2022-11-20T09:45:21;7.00;99.90
25825;DHT22;13658;44.534;18.694;2022-11-20T09:56:03;7.00;99.90
25825;DHT22;13658;44.534;18.694;2022-11-20T09:58:38;7.00;99.90
25825;DHT22;13658;44.534;18.694;2022-11-20T10:01:35;7.00;99.90
25825;DHT22;13658;44.534;18.694;2022-11-20T10:04:14;7.00;99.90
25825;DHT22;13658;44.534;18.694;2022-11-20T10:06:47;6.90;99.90
25825;DHT22;13658;44.534;18.694;2022-11-20T10:09:25;7.00;99.90
25825;DHT22;13658;44.534;18.694;2022-11-20T10:15:18;7.10;99.90
25825;DHT22;13658;44.534;18.694;2022-11-20T10:18:05;7.10;99.90
25825;DHT22;13658;44.534;18.694;2022-11-20T10:23:56;7.10;99.90
25825;DHT22;13658;44.534;18.694;2022-11-20T10:29:08;7.20;99.90
25825;DHT22;13658;44.534;18.694;2022-11-20T10:31:46;7.20;99.90
25825;DHT22;13658;44.534;18.694;2022-11-20T10:37:00;7.30;99.90
25825;DHT22;13658;44.534;18.694;2022-11-20T10:39:39;7.40;99.90
25825;DHT22;13658;44.534;18.694;2022-11-20T10:42:16;7.40;99.90
25825;DHT22;13658;44.534;18.694;2022-11-20T10:44:49;7.30;99.90
25825;DHT22;13658;44.534;18.694;2022-11-20T10:47:28;7.30;99.90
25825;DHT22;13658;44.534;18.694;2022-11-20T10:49:57;7.30;99.90
25825;DHT22;13658;44.534;18.694;2022-11-20T10:53:04;7.30;99.90
25825;DHT22;13658;44.534;18.694;2022-11-20T11:00:32;7.40;99.90
25825;DHT22;13658;44.534;18.694;2022-11-20T11:02:58;7.40;99.90
25825;DHT22;13658;44.534;18.694;2022-11-20T11:06:07;7.30;99.90
25825;DHT22;13658;44.534;18.694;2022-11-20T11:08:38;7.30;99.90
25825;DHT22;13658;44.534;18.694;2022-11-20T11:11:16;7.30;99.90
25825;DHT22;13658;44.534;18.694;2022-11-20T11:13:43;7.20;99.90
25825;DHT22;13658;44.534;18.694;2022-11-20T11:16:24;7.30;99.90
25825;DHT22;13658;44.534;18.694;2022-11-20T11:18:50;7.20;99.90
25825;DHT22;13658;44.534;18.694;2022-11-20T11:21:24;7.10;99.90
25825;DHT22;13658;44.534;18.694;2022-11-20T11:24:02;7.10;99.90
25825;DHT22;13658;44.534;18.694;2022-11-20T11:26:29;7.10;99.90
25825;DHT22;13658;44.534;18.694;2022-11-20T11:29:02;7.10;99.90
25825;DHT22;13658;44.534;18.694;2022-11-20T11:31:31;7.10;99.90
25825;DHT22;13658;44.534;18.694;2022-11-20T11:34:14;7.00;99.90
25825;DHT22;13658;44.534;18.694;2022-11-20T11:36:41;7.00;99.90
25825;DHT22;13658;44.534;18.694;2022-11-20T11:39:18;7.00;99.90
25825;DHT22;13658;44.534;18.694;2022-11-20T11:41:45;6.90;99.90
25825;DHT22;13658;44.534;18.694;2022-11-20T11:44:30;6.90;99.90
25825;DHT22;13658;44.534;18.694;2022-11-20T11:47:47;6.80;99.90
25825;DHT22;13658;44.534;18.694;2022-11-20T12:01:28;6.60;99.90
25825;DHT22;13658;44.534;18.694;2022-11-20T12:04:35;6.60;99.90
25825;DHT22;13658;44.534;18.694;2022-11-20T12:07:32;6.50;99.90
25825;DHT22;13658;44.534;18.694;2022-11-20T12:10:02;6.50;99.90
25825;DHT22;13658;44.534;18.694;2022-11-20T12:12:34;6.50;99.90
25825;DHT22;13658;44.534;18.694;2022-11-20T12:15:03;6.40;99.90
25825;DHT22;13658;44.534;18.694;2022-11-20T12:17:29;6.40;99.90
25825;DHT22;13658;44.534;18.694;2022-11-20T12:19:56;6.40;99.90
25825;DHT22;13658;44.534;18.694;2022-11-20T12:25:25;6.40;99.90
25825;DHT22;13658;44.534;18.694;2022-11-20T12:30:24;6.40;99.90
25825;DHT22;13658;44.534;18.694;2022-11-20T12:47:24;6.40;99.90
25825;DHT22;13658;44.534;18.694;2022-11-20T12:52:56;6.30;99.90
25825;DHT22;13658;44.534;18.694;2022-11-20T12:55:48;6.40;99.90
25825;DHT22;13658;44.534;18.694;2022-11-20T13:00:58;6.50;99.90
25825;DHT22;13658;44.534;18.694;2022-11-20T13:03:47;6.50;99.90
25825;DHT22;13658;44.534;18.694;2022-11-20T13:06:18;6.50;99.90
25825;DHT22;13658;44.534;18.694;2022-11-20T13:08:53;6.50;99.90
25825;DHT22;13658;44.534;18.694;2022-11-20T13:17:04;6.40;99.90
25825;DHT22;13658;44.534;18.694;2022-11-20T13:19:32;6.50;99.90
25825;DHT22;13658;44.534;18.694;2022-11-20T13:21:58;6.50;99.90
25825;DHT22;13658;44.534;18.694;2022-11-20T13:24:28;6.60;99.90
25825;DHT22;13658;44.534;18.694;2022-11-20T13:29:35;6.50;99.90
25825;DHT22;13658;44.534;18.694;2022-11-20T13:32:22;6.50;99.90
25825;DHT22;13658;44.534;18.694;2022-11-20T13:34:56;6.50;99.90
25825;DHT22;13658;44.534;18.694;2022-11-20T13:37:31;6.50;99.90
25825;DHT22;13658;44.534;18.694;2022-11-20T13:45:25;6.60;99.90
25825;DHT22;13658;44.534;18.694;2022-11-20T13:47:53;6.60;99.90
25825;DHT22;13658;44.534;18.694;2022-11-20T13:50:27;6.50;99.90
25825;DHT22;13658;44.534;18.694;2022-11-20T13:56:08;6.40;99.90
25825;DHT22;13658;44.534;18.694;2022-11-20T13:58:59;6.40;99.90
25825;DHT22;13658;44.534;18.694;2022-11-20T14:01:30;6.30;99.90
25825;DHT22;13658;44.534;18.694;2022-11-20T14:04:06;6.30;99.90
25825;DHT22;13658;44.534;18.694;2022-11-20T14:06:44;6.40;99.90
25825;DHT22;13658;44.534;18.694;2022-11-20T14:09:13;6.30;99.90
25825;DHT22;13658;44.534;18.694;2022-11-20T14:11:50;6.30;99.90
25825;DHT22;13658;44.534;18.694;2022-11-20T14:14:20;6.30;99.90
25825;DHT22;13658;44.534;18.694;2022-11-20T14:16:47;6.20;99.90
25825;DHT22;13658;44.534;18.694;2022-11-20T14:21:46;6.20;99.90
25825;DHT22;13658;44.534;18.694;2022-11-20T14:24:13;6.20;99.90
25825;DHT22;13658;44.534;18.694;2022-11-20T14:26:44;6.10;99.90
25825;DHT22;13658;44.534;18.694;2022-11-20T14:31:44;6.10;99.90
25825;DHT22;13658;44.534;18.694;2022-11-20T14:34:38;6.00;99.90
25825;DHT22;13658;44.534;18.694;2022-11-20T14:37:10;6.00;99.90
25825;DHT22;13658;44.534;18.694;2022-11-20T14:39:41;6.00;99.90
25825;DHT22;13658;44.534;18.694;2022-11-20T14:42:22;5.90;99.90
25825;DHT22;13658;44.534;18.694;2022-11-20T14:44:50;5.90;99.90
25825;DHT22;13658;44.534;18.694;2022-11-20T14:47:21;6.00;99.90
25825;DHT22;13658;44.534;18.694;2022-11-20T14:49:49;6.00;99.90
25825;DHT22;13658;44.534;18.694;2022-11-20T14:52:20;6.00;99.90
25825;DHT22;13658;44.534;18.694;2022-11-20T14:54:48;5.90;99.90
25825;DHT22;13658;44.534;18.694;2022-11-20T14:59:46;5.90;99.90
25825;DHT22;13658;44.534;18.694;2022-11-20T15:02:12;5.90;99.90
25825;DHT22;13658;44.534;18.694;2022-11-20T15:04:50;5.90;99.90
25825;DHT22;13658;44.534;18.694;2022-11-20T15:07:31;5.90;99.90
25825;DHT22;13658;44.534;18.694;2022-11-20T15:10:05;5.80;99.90
25825;DHT22;13658;44.534;18.694;2022-11-20T15:12:33;5.80;99.90
25825;DHT22;13658;44.534;18.694;2022-11-20T15:15:01;5.80;99.90
25825;DHT22;13658;44.534;18.694;2022-11-20T15:17:29;5.80;99.90
25825;DHT22;13658;44.534;18.694;2022-11-20T15:19:56;5.80;99.90
25825;DHT22;13658;44.534;18.694;2022-11-20T15:22:22;5.80;99.90
25825;DHT22;13658;44.534;18.694;2022-11-20T15:24:48;5.80;99.90
25825;DHT22;13658;44.534;18.694;2022-11-20T15:27:14;5.80;99.90
25825;DHT22;13658;44.534;18.694;2022-11-20T15:29:41;5.80;99.90
25825;DHT22;13658;44.534;18.694;2022-11-20T15:32:08;5.70;99.90
25825;DHT22;13658;44.534;18.694;2022-11-20T15:34:34;5.70;99.90
25825;DHT22;13658;44.534;18.694;2022-11-20T15:37:01;5.70;99.90
25825;DHT22;13658;44.534;18.694;2022-11-20T15:39:27;5.70;99.90
25825;DHT22;13658;44.534;18.694;2022-11-20T15:41:53;5.80;99.90
25825;DHT22;13658;44.534;18.694;2022-11-20T15:44:18;5.70;99.90
25825;DHT22;13658;44.534;18.694;2022-11-20T15:46:45;5.80;99.90
25825;DHT22;13658;44.534;18.694;2022-11-20T15:49:14;5.80;99.90
25825;DHT22;13658;44.534;18.694;2022-11-20T15:51:46;5.80;99.90
25825;DHT22;13658;44.534;18.694;2022-11-20T15:54:18;5.80;99.90
25825;DHT22;13658;44.534;18.694;2022-11-20T15:56:49;5.90;99.90
25825;DHT22;13658;44.534;18.694;2022-11-20T15:59:18;5.80;99.90
25825;DHT22;13658;44.534;18.694;2022-11-20T16:01:44;5.80;99.90
25825;DHT22;13658;44.534;18.694;2022-11-20T16:04:13;5.80;99.90
25825;DHT22;13658;44.534;18.694;2022-11-20T16:06:39;5.80;99.90
25825;DHT22;13658;44.534;18.694;2022-11-20T16:09:06;5.80;99.90
25825;DHT22;13658;44.534;18.694;2022-11-20T16:11:33;5.80;99.90
25825;DHT22;13658;44.534;18.694;2022-11-20T16:14:04;5.80;99.90
25825;DHT22;13658;44.534;18.694;2022-11-20T16:16:49;5.80;99.90
25825;DHT22;13658;44.534;18.694;2022-11-20T16:19:16;5.80;99.90
25825;DHT22;13658;44.534;18.694;2022-11-20T16:21:43;5.80;99.90
25825;DHT22;13658;44.534;18.694;2022-11-20T16:24:12;5.80;99.90
25825;DHT22;13658;44.534;18.694;2022-11-20T16:26:40;5.80;99.90
25825;DHT22;13658;44.534;18.694;2022-11-20T16:29:06;5.90;99.90
25825;DHT22;13658;44.534;18.694;2022-11-20T16:31:32;5.80;99.90
25825;DHT22;13658;44.534;18.694;2022-11-20T16:34:01;5.80;99.90
25825;DHT22;13658;44.534;18.694;2022-11-20T16:36:29;5.80;99.90
25825;DHT22;13658;44.534;18.694;2022-11-20T16:39:00;5.80;99.90
25825;DHT22;13658;44.534;18.694;2022-11-20T16:41:29;5.80;99.90
25825;DHT22;13658;44.534;18.694;2022-11-20T16:43:58;5.70;99.90
25825;DHT22;13658;44.534;18.694;2022-11-20T16:46:29;5.70;99.90
25825;DHT22;13658;44.534;18.694;2022-11-20T16:49:00;5.70;99.90
25825;DHT22;13658;44.534;18.694;2022-11-20T16:51:28;5.70;99.90
25825;DHT22;13658;44.534;18.694;2022-11-20T16:53:55;5.70;99.90
25825;DHT22;13658;44.534;18.694;2022-11-20T16:56:25;5.70;99.90
25825;DHT22;13658;44.534;18.694;2022-11-20T16:58:54;5.70;99.90
25825;DHT22;13658;44.534;18.694;2022-11-20T17:01:21;5.70;99.90
25825;DHT22;13658;44.534;18.694;2022-11-20T17:04:03;5.70;99.90
25825;DHT22;13658;44.534;18.694;2022-11-20T17:06:34;5.80;99.90
25825;DHT22;13658;44.534;18.694;2022-11-20T17:09:00;5.80;99.90
25825;DHT22;13658;44.534;18.694;2022-11-20T17:11:26;5.80;99.90
25825;DHT22;13658;44.534;18.694;2022-11-20T17:13:54;5.80;99.90
25825;DHT22;13658;44.534;18.694;2022-11-20T17:16:23;5.80;99.90